sensor_id;sensor_type;location;lat;lon;timestamp;P1;durP1;ratioP1;P2;durP2;ratioP2
70388;SDS011;58659;49.050;8.530;2023-08-17T00:01:47;4.43;;;2.40;;
70388;SDS011;58659;49.050;8.530;2023-08-17T00:04:12;6.67;;;2.83;;
70388;SDS011;58659;49.050;8.530;2023-08-17T00:06:38;4.63;;;2.80;;
70388;SDS011;58659;49.050;8.530;2023-08-17T00:09:03;5.70;;;3.03;;
70388;SDS011;58659;49.050;8.530;2023-08-17T00:11:28;4.57;;;2.67;;
70388;SDS011;58659;49.050;8.530;2023-08-17T00:13:54;5.43;;;2.43;;
70388;SDS011;58659;49.050;8.530;2023-08-17T00:16:19;3.70;;;2.27;;
70388;SDS011;58659;49.050;8.530;2023-08-17T00:18:45;3.50;;;2.10;;
70388;SDS011;58659;49.050;8.530;2023-08-17T00:21:10;6.53;;;2.93;;
70388;SDS011;58659;49.050;8.530;2023-08-17T00:23:35;6.57;;;2.47;;
70388;SDS011;58659;49.050;8.530;2023-08-17T00:26:01;8.03;;;3.47;;
70388;SDS011;58659;49.050;8.530;2023-08-17T00:28:26;4.63;;;2.27;;
70388;SDS011;58659;49.050;8.530;2023-08-17T00:30:51;4.17;;;3.00;;
70388;SDS011;58659;49.050;8.530;2023-08-17T00:33:17;4.10;;;2.60;;
70388;SDS011;58659;49.050;8.530;2023-08-17T00:35:42;11.60;;;3.30;;
70388;SDS011;58659;49.050;8.530;2023-08-17T00:38:08;6.43;;;2.90;;
70388;SDS011;58659;49.050;8.530;2023-08-17T00:40:33;4.53;;;2.63;;
70388;SDS011;58659;49.050;8.530;2023-08-17T00:43:02;5.77;;;3.20;;
70388;SDS011;58659;49.050;8.530;2023-08-17T00:45:27;6.47;;;2.93;;
70388;SDS011;58659;49.050;8.530;2023-08-17T00:47:56;5.97;;;3.00;;
70388;SDS011;58659;49.050;8.530;2023-08-17T00:50:23;8.33;;;3.17;;
70388;SDS011;58659;49.050;8.530;2023-08-17T00:52:51;5.63;;;2.67;;
70388;SDS011;58659;49.050;8.530;2023-08-17T00:55:17;6.30;;;2.60;;
70388;SDS011;58659;49.050;8.530;2023-08-17T00:57:43;6.37;;;3.03;;
70388;SDS011;58659;49.050;8.530;2023-08-17T01:00:09;5.10;;;3.00;;
70388;SDS011;58659;49.050;8.530;2023-08-17T01:02:36;4.83;;;2.73;;
70388;SDS011;58659;49.050;8.530;2023-08-17T01:05:02;6.83;;;3.00;;
70388;SDS011;58659;49.050;8.530;2023-08-17T01:07:27;4.43;;;2.70;;
70388;SDS011;58659;49.050;8.530;2023-08-17T01:09:52;7.40;;;2.70;;
70388;SDS011;58659;49.050;8.530;2023-08-17T01:12:24;6.63;;;2.87;;
70388;SDS011;58659;49.050;8.530;2023-08-17T01:15:12;4.97;;;2.63;;
70388;SDS011;58659;49.050;8.530;2023-08-17T01:20:18;8.47;;;2.97;;
70388;SDS011;58659;49.050;8.530;2023-08-17T01:22:45;9.50;;;2.90;;
70388;SDS011;58659;49.050;8.530;2023-08-17T01:25:12;5.03;;;2.77;;
70388;SDS011;58659;49.050;8.530;2023-08-17T01:27:41;7.63;;;3.10;;
70388;SDS011;58659;49.050;8.530;2023-08-17T01:30:09;4.93;;;2.70;;
70388;SDS011;58659;49.050;8.530;2023-08-17T01:35:07;5.73;;;2.80;;
70388;SDS011;58659;49.050;8.530;2023-08-17T01:37:38;5.67;;;2.67;;
70388;SDS011;58659;49.050;8.530;2023-08-17T01:40:07;7.97;;;3.43;;
70388;SDS011;58659;49.050;8.530;2023-08-17T01:42:34;6.63;;;2.73;;
70388;SDS011;58659;49.050;8.530;2023-08-17T01:45:01;5.57;;;2.73;;
70388;SDS011;58659;49.050;8.530;2023-08-17T01:47:27;7.03;;;2.60;;
70388;SDS011;58659;49.050;8.530;2023-08-17T01:49:52;7.97;;;2.67;;
70388;SDS011;58659;49.050;8.530;2023-08-17T01:52:17;7.50;;;2.50;;
70388;SDS011;58659;49.050;8.530;2023-08-17T01:54:43;5.90;;;2.50;;
70388;SDS011;58659;49.050;8.530;2023-08-17T01:57:08;7.67;;;2.70;;
70388;SDS011;58659;49.050;8.530;2023-08-17T01:59:33;5.30;;;2.83;;
70388;SDS011;58659;49.050;8.530;2023-08-17T02:01:58;5.00;;;3.00;;
70388;SDS011;58659;49.050;8.530;2023-08-17T02:04:24;5.50;;;3.00;;
70388;SDS011;58659;49.050;8.530;2023-08-17T02:06:50;6.13;;;3.37;;
70388;SDS011;58659;49.050;8.530;2023-08-17T02:09:15;5.17;;;3.23;;
70388;SDS011;58659;49.050;8.530;2023-08-17T02:11:40;7.93;;;3.47;;
70388;SDS011;58659;49.050;8.530;2023-08-17T02:14:06;5.50;;;3.13;;
70388;SDS011;58659;49.050;8.530;2023-08-17T02:16:31;7.37;;;3.07;;
70388;SDS011;58659;49.050;8.530;2023-08-17T02:18:56;7.93;;;2.77;;
70388;SDS011;58659;49.050;8.530;2023-08-17T02:21:22;5.57;;;3.00;;
70388;SDS011;58659;49.050;8.530;2023-08-17T02:23:47;8.03;;;3.37;;
70388;SDS011;58659;49.050;8.530;2023-08-17T02:26:12;6.50;;;3.20;;
70388;SDS011;58659;49.050;8.530;2023-08-17T02:28:38;9.30;;;3.73;;
70388;SDS011;58659;49.050;8.530;2023-08-17T02:31:03;10.47;;;3.70;;
70388;SDS011;58659;49.050;8.530;2023-08-17T02:33:28;7.43;;;4.10;;
70388;SDS011;58659;49.050;8.530;2023-08-17T02:35:54;5.00;;;2.83;;
70388;SDS011;58659;49.050;8.530;2023-08-17T02:38:19;6.87;;;3.33;;
70388;SDS011;58659;49.050;8.530;2023-08-17T02:40:44;5.50;;;2.90;;
70388;SDS011;58659;49.050;8.530;2023-08-17T02:43:10;8.37;;;2.87;;
70388;SDS011;58659;49.050;8.530;2023-08-17T02:45:35;5.50;;;2.90;;
70388;SDS011;58659;49.050;8.530;2023-08-17T02:48:00;5.03;;;2.70;;
70388;SDS011;58659;49.050;8.530;2023-08-17T02:50:26;4.97;;;2.57;;
70388;SDS011;58659;49.050;8.530;2023-08-17T02:52:51;7.43;;;2.73;;
70388;SDS011;58659;49.050;8.530;2023-08-17T02:55:18;8.90;;;3.00;;
70388;SDS011;58659;49.050;8.530;2023-08-17T02:57:44;7.23;;;3.00;;
70388;SDS011;58659;49.050;8.530;2023-08-17T03:00:09;7.00;;;3.37;;
70388;SDS011;58659;49.050;8.530;2023-08-17T03:02:35;5.63;;;2.60;;
70388;SDS011;58659;49.050;8.530;2023-08-17T03:05:00;6.63;;;3.23;;
70388;SDS011;58659;49.050;8.530;2023-08-17T03:07:26;11.03;;;3.30;;
70388;SDS011;58659;49.050;8.530;2023-08-17T03:09:51;5.93;;;2.83;;
70388;SDS011;58659;49.050;8.530;2023-08-17T03:12:16;7.40;;;3.13;;
70388;SDS011;58659;49.050;8.530;2023-08-17T03:14:42;7.33;;;3.17;;
70388;SDS011;58659;49.050;8.530;2023-08-17T03:17:07;7.23;;;3.10;;
70388;SDS011;58659;49.050;8.530;2023-08-17T03:19:32;4.87;;;2.93;;
70388;SDS011;58659;49.050;8.530;2023-08-17T03:21:57;7.20;;;2.93;;
70388;SDS011;58659;49.050;8.530;2023-08-17T03:24:23;11.27;;;3.93;;
70388;SDS011;58659;49.050;8.530;2023-08-17T03:26:48;8.37;;;3.17;;
70388;SDS011;58659;49.050;8.530;2023-08-17T03:29:13;6.83;;;3.27;;
70388;SDS011;58659;49.050;8.530;2023-08-17T03:31:39;4.87;;;2.67;;
70388;SDS011;58659;49.050;8.530;2023-08-17T03:34:04;7.20;;;3.00;;
70388;SDS011;58659;49.050;8.530;2023-08-17T03:36:29;7.13;;;3.40;;
70388;SDS011;58659;49.050;8.530;2023-08-17T03:38:54;8.20;;;3.13;;
70388;SDS011;58659;49.050;8.530;2023-08-17T03:41:21;5.53;;;3.13;;
70388;SDS011;58659;49.050;8.530;2023-08-17T03:43:48;5.50;;;3.30;;
70388;SDS011;58659;49.050;8.530;2023-08-17T03:46:14;10.53;;;3.97;;
70388;SDS011;58659;49.050;8.530;2023-08-17T03:48:39;8.00;;;3.90;;
70388;SDS011;58659;49.050;8.530;2023-08-17T03:51:04;10.80;;;4.10;;
70388;SDS011;58659;49.050;8.530;2023-08-17T03:53:30;8.90;;;4.43;;
70388;SDS011;58659;49.050;8.530;2023-08-17T03:55:55;9.37;;;4.17;;
70388;SDS011;58659;49.050;8.530;2023-08-17T03:58:20;9.07;;;4.00;;
70388;SDS011;58659;49.050;8.530;2023-08-17T04:00:49;11.37;;;4.20;;
70388;SDS011;58659;49.050;8.530;2023-08-17T04:03:16;12.17;;;3.83;;
70388;SDS011;58659;49.050;8.530;2023-08-17T04:05:41;8.40;;;4.57;;
70388;SDS011;58659;49.050;8.530;2023-08-17T04:08:06;7.30;;;3.50;;
70388;SDS011;58659;49.050;8.530;2023-08-17T04:10:32;7.77;;;3.50;;
70388;SDS011;58659;49.050;8.530;2023-08-17T04:12:57;10.63;;;4.67;;
70388;SDS011;58659;49.050;8.530;2023-08-17T04:15:22;10.03;;;4.30;;
70388;SDS011;58659;49.050;8.530;2023-08-17T04:17:48;10.33;;;4.60;;
70388;SDS011;58659;49.050;8.530;2023-08-17T04:20:13;13.10;;;4.30;;
70388;SDS011;58659;49.050;8.530;2023-08-17T04:22:38;9.47;;;3.97;;
70388;SDS011;58659;49.050;8.530;2023-08-17T04:25:04;8.97;;;4.10;;
70388;SDS011;58659;49.050;8.530;2023-08-17T04:27:29;9.73;;;3.73;;
70388;SDS011;58659;49.050;8.530;2023-08-17T04:29:54;10.30;;;4.17;;
70388;SDS011;58659;49.050;8.530;2023-08-17T04:32:20;10.17;;;4.33;;
70388;SDS011;58659;49.050;8.530;2023-08-17T04:34:45;12.07;;;4.13;;
70388;SDS011;58659;49.050;8.530;2023-08-17T04:37:11;10.07;;;4.47;;
70388;SDS011;58659;49.050;8.530;2023-08-17T04:39:36;9.03;;;3.73;;
70388;SDS011;58659;49.050;8.530;2023-08-17T04:42:05;9.03;;;4.40;;
70388;SDS011;58659;49.050;8.530;2023-08-17T04:44:30;7.10;;;3.37;;
70388;SDS011;58659;49.050;8.530;2023-08-17T04:46:56;9.23;;;3.83;;
70388;SDS011;58659;49.050;8.530;2023-08-17T04:49:21;9.00;;;4.30;;
70388;SDS011;58659;49.050;8.530;2023-08-17T04:51:46;7.73;;;3.47;;
70388;SDS011;58659;49.050;8.530;2023-08-17T04:54:12;7.60;;;4.30;;
70388;SDS011;58659;49.050;8.530;2023-08-17T04:56:37;9.07;;;4.50;;
70388;SDS011;58659;49.050;8.530;2023-08-17T04:59:02;9.63;;;4.20;;
70388;SDS011;58659;49.050;8.530;2023-08-17T05:01:28;12.80;;;4.80;;
70388;SDS011;58659;49.050;8.530;2023-08-17T05:03:53;12.70;;;4.57;;
70388;SDS011;58659;49.050;8.530;2023-08-17T05:06:18;9.27;;;4.47;;
70388;SDS011;58659;49.050;8.530;2023-08-17T05:08:44;6.87;;;4.27;;
70388;SDS011;58659;49.050;8.530;2023-08-17T05:11:09;9.63;;;3.80;;
70388;SDS011;58659;49.050;8.530;2023-08-17T05:13:35;8.27;;;4.30;;
70388;SDS011;58659;49.050;8.530;2023-08-17T05:16:00;14.67;;;4.57;;
70388;SDS011;58659;49.050;8.530;2023-08-17T05:18:26;8.87;;;4.50;;
70388;SDS011;58659;49.050;8.530;2023-08-17T05:20:51;11.13;;;4.70;;
70388;SDS011;58659;49.050;8.530;2023-08-17T05:23:16;13.10;;;4.30;;
70388;SDS011;58659;49.050;8.530;2023-08-17T05:25:45;8.47;;;4.47;;
70388;SDS011;58659;49.050;8.530;2023-08-17T05:28:11;10.87;;;4.53;;
70388;SDS011;58659;49.050;8.530;2023-08-17T05:30:36;10.57;;;4.10;;
70388;SDS011;58659;49.050;8.530;2023-08-17T05:33:01;6.67;;;3.67;;
70388;SDS011;58659;49.050;8.530;2023-08-17T05:35:27;8.37;;;3.33;;
70388;SDS011;58659;49.050;8.530;2023-08-17T05:37:52;5.83;;;2.93;;
70388;SDS011;58659;49.050;8.530;2023-08-17T05:40:17;6.90;;;3.47;;
70388;SDS011;58659;49.050;8.530;2023-08-17T05:42:43;8.20;;;3.80;;
70388;SDS011;58659;49.050;8.530;2023-08-17T05:45:11;5.60;;;3.33;;
70388;SDS011;58659;49.050;8.530;2023-08-17T05:47:36;5.53;;;3.33;;
70388;SDS011;58659;49.050;8.530;2023-08-17T05:50:02;8.20;;;3.40;;
70388;SDS011;58659;49.050;8.530;2023-08-17T05:52:27;8.20;;;3.93;;
70388;SDS011;58659;49.050;8.530;2023-08-17T05:54:52;5.60;;;3.20;;
70388;SDS011;58659;49.050;8.530;2023-08-17T05:57:18;8.90;;;3.37;;
70388;SDS011;58659;49.050;8.530;2023-08-17T05:59:43;6.03;;;2.87;;
70388;SDS011;58659;49.050;8.530;2023-08-17T06:02:08;7.67;;;3.40;;
70388;SDS011;58659;49.050;8.530;2023-08-17T06:04:34;9.30;;;3.70;;
70388;SDS011;58659;49.050;8.530;2023-08-17T06:06:59;8.13;;;3.37;;
70388;SDS011;58659;49.050;8.530;2023-08-17T06:09:24;10.43;;;4.10;;
70388;SDS011;58659;49.050;8.530;2023-08-17T06:11:50;9.70;;;3.53;;
70388;SDS011;58659;49.050;8.530;2023-08-17T06:14:15;11.80;;;4.43;;
70388;SDS011;58659;49.050;8.530;2023-08-17T06:16:40;8.27;;;3.97;;
70388;SDS011;58659;49.050;8.530;2023-08-17T06:19:06;8.57;;;4.27;;
70388;SDS011;58659;49.050;8.530;2023-08-17T06:21:31;9.83;;;4.63;;
70388;SDS011;58659;49.050;8.530;2023-08-17T06:23:57;8.00;;;4.17;;
70388;SDS011;58659;49.050;8.530;2023-08-17T06:26:22;9.70;;;4.10;;
70388;SDS011;58659;49.050;8.530;2023-08-17T06:28:47;8.00;;;4.30;;
70388;SDS011;58659;49.050;8.530;2023-08-17T06:31:15;9.50;;;4.00;;
70388;SDS011;58659;49.050;8.530;2023-08-17T06:33:41;8.17;;;3.93;;
70388;SDS011;58659;49.050;8.530;2023-08-17T06:36:06;8.40;;;4.53;;
70388;SDS011;58659;49.050;8.530;2023-08-17T06:38:32;7.70;;;4.23;;
70388;SDS011;58659;49.050;8.530;2023-08-17T06:40:57;7.93;;;4.10;;
70388;SDS011;58659;49.050;8.530;2023-08-17T06:43:22;7.87;;;4.10;;
70388;SDS011;58659;49.050;8.530;2023-08-17T06:45:48;8.70;;;4.43;;
70388;SDS011;58659;49.050;8.530;2023-08-17T06:48:13;6.97;;;3.73;;
70388;SDS011;58659;49.050;8.530;2023-08-17T06:50:38;8.00;;;3.80;;
70388;SDS011;58659;49.050;8.530;2023-08-17T06:53:04;6.37;;;3.80;;
70388;SDS011;58659;49.050;8.530;2023-08-17T06:55:49;4.97;;;3.53;;
70388;SDS011;58659;49.050;8.530;2023-08-17T06:58:40;5.67;;;3.47;;
70388;SDS011;58659;49.050;8.530;2023-08-17T07:01:06;10.00;;;4.33;;
70388;SDS011;58659;49.050;8.530;2023-08-17T07:03:31;9.13;;;4.00;;
70388;SDS011;58659;49.050;8.530;2023-08-17T07:05:57;9.60;;;4.40;;
70388;SDS011;58659;49.050;8.530;2023-08-17T07:08:22;8.90;;;4.40;;
70388;SDS011;58659;49.050;8.530;2023-08-17T07:10:48;13.40;;;3.97;;
70388;SDS011;58659;49.050;8.530;2023-08-17T07:13:13;7.50;;;4.00;;
70388;SDS011;58659;49.050;8.530;2023-08-17T07:15:38;7.90;;;4.20;;
70388;SDS011;58659;49.050;8.530;2023-08-17T07:18:04;7.30;;;4.43;;
70388;SDS011;58659;49.050;8.530;2023-08-17T07:20:29;14.27;;;4.60;;
70388;SDS011;58659;49.050;8.530;2023-08-17T07:22:57;8.13;;;4.20;;
70388;SDS011;58659;49.050;8.530;2023-08-17T07:25:22;10.13;;;4.80;;
70388;SDS011;58659;49.050;8.530;2023-08-17T07:27:49;12.03;;;4.27;;
70388;SDS011;58659;49.050;8.530;2023-08-17T07:30:14;5.93;;;3.90;;
70388;SDS011;58659;49.050;8.530;2023-08-17T07:32:40;8.07;;;4.10;;
70388;SDS011;58659;49.050;8.530;2023-08-17T07:35:06;16.40;;;5.17;;
70388;SDS011;58659;49.050;8.530;2023-08-17T07:37:33;11.00;;;4.80;;
70388;SDS011;58659;49.050;8.530;2023-08-17T07:39:58;9.73;;;4.43;;
70388;SDS011;58659;49.050;8.530;2023-08-17T07:42:24;9.27;;;4.80;;
70388;SDS011;58659;49.050;8.530;2023-08-17T07:44:49;8.73;;;4.67;;
70388;SDS011;58659;49.050;8.530;2023-08-17T07:47:15;9.40;;;5.60;;
70388;SDS011;58659;49.050;8.530;2023-08-17T07:49:40;9.50;;;4.43;;
70388;SDS011;58659;49.050;8.530;2023-08-17T07:52:06;13.30;;;5.20;;
70388;SDS011;58659;49.050;8.530;2023-08-17T07:54:31;10.43;;;4.87;;
70388;SDS011;58659;49.050;8.530;2023-08-17T07:56:57;10.70;;;5.20;;
70388;SDS011;58659;49.050;8.530;2023-08-17T07:59:22;9.17;;;4.90;;
70388;SDS011;58659;49.050;8.530;2023-08-17T08:01:47;11.07;;;4.67;;
70388;SDS011;58659;49.050;8.530;2023-08-17T08:04:13;9.40;;;4.60;;
70388;SDS011;58659;49.050;8.530;2023-08-17T08:06:38;9.80;;;4.70;;
70388;SDS011;58659;49.050;8.530;2023-08-17T08:09:03;10.53;;;4.87;;
70388;SDS011;58659;49.050;8.530;2023-08-17T08:11:29;9.00;;;4.43;;
70388;SDS011;58659;49.050;8.530;2023-08-17T08:13:55;11.70;;;4.63;;
70388;SDS011;58659;49.050;8.530;2023-08-17T08:16:21;8.63;;;4.90;;
70388;SDS011;58659;49.050;8.530;2023-08-17T08:18:53;19.37;;;4.57;;
70388;SDS011;58659;49.050;8.530;2023-08-17T08:21:20;8.90;;;4.53;;
70388;SDS011;58659;49.050;8.530;2023-08-17T08:23:50;12.20;;;4.30;;
70388;SDS011;58659;49.050;8.530;2023-08-17T08:26:18;9.67;;;4.43;;
70388;SDS011;58659;49.050;8.530;2023-08-17T08:28:44;9.63;;;3.87;;
70388;SDS011;58659;49.050;8.530;2023-08-17T08:31:13;11.17;;;5.10;;
70388;SDS011;58659;49.050;8.530;2023-08-17T08:33:38;11.33;;;4.40;;
70388;SDS011;58659;49.050;8.530;2023-08-17T08:36:04;11.07;;;4.23;;
70388;SDS011;58659;49.050;8.530;2023-08-17T08:38:31;7.77;;;3.87;;
70388;SDS011;58659;49.050;8.530;2023-08-17T08:40:59;8.37;;;4.10;;
70388;SDS011;58659;49.050;8.530;2023-08-17T08:43:26;7.33;;;4.40;;
70388;SDS011;58659;49.050;8.530;2023-08-17T08:45:51;9.47;;;4.13;;
70388;SDS011;58659;49.050;8.530;2023-08-17T08:48:18;8.67;;;4.37;;
70388;SDS011;58659;49.050;8.530;2023-08-17T08:50:44;9.17;;;4.80;;
70388;SDS011;58659;49.050;8.530;2023-08-17T08:53:14;9.52;;;4.53;;
70388;SDS011;58659;49.050;8.530;2023-08-17T08:55:52;9.50;;;5.00;;
70388;SDS011;58659;49.050;8.530;2023-08-17T08:58:22;11.17;;;4.73;;
70388;SDS011;58659;49.050;8.530;2023-08-17T09:00:49;9.17;;;4.90;;
70388;SDS011;58659;49.050;8.530;2023-08-17T09:03:15;8.40;;;4.83;;
70388;SDS011;58659;49.050;8.530;2023-08-17T09:05:50;9.05;;;4.57;;
70388;SDS011;58659;49.050;8.530;2023-08-17T09:08:20;7.32;;;4.47;;
70388;SDS011;58659;49.050;8.530;2023-08-17T09:10:47;6.80;;;4.05;;
70388;SDS011;58659;49.050;8.530;2023-08-17T09:13:13;6.93;;;3.60;;
70388;SDS011;58659;49.050;8.530;2023-08-17T09:15:39;6.72;;;3.90;;
70388;SDS011;58659;49.050;8.530;2023-08-17T09:18:07;12.70;;;3.90;;
70388;SDS011;58659;49.050;8.530;2023-08-17T09:23:03;7.50;;;4.40;;
70388;SDS011;58659;49.050;8.530;2023-08-17T09:25:30;7.03;;;3.92;;
70388;SDS011;58659;49.050;8.530;2023-08-17T09:27:56;6.90;;;4.20;;
70388;SDS011;58659;49.050;8.530;2023-08-17T09:30:22;8.35;;;3.85;;
70388;SDS011;58659;49.050;8.530;2023-08-17T09:32:47;9.55;;;4.13;;
70388;SDS011;58659;49.050;8.530;2023-08-17T09:35:14;9.30;;;4.07;;
70388;SDS011;58659;49.050;8.530;2023-08-17T09:37:40;6.40;;;3.90;;
70388;SDS011;58659;49.050;8.530;2023-08-17T09:40:08;6.45;;;3.67;;
70388;SDS011;58659;49.050;8.530;2023-08-17T09:42:36;6.95;;;4.03;;
70388;SDS011;58659;49.050;8.530;2023-08-17T09:45:03;6.13;;;3.58;;
70388;SDS011;58659;49.050;8.530;2023-08-17T09:47:32;6.70;;;3.92;;
70388;SDS011;58659;49.050;8.530;2023-08-17T09:50:00;7.85;;;3.58;;
70388;SDS011;58659;49.050;8.530;2023-08-17T09:52:26;5.53;;;3.33;;
70388;SDS011;58659;49.050;8.530;2023-08-17T09:54:54;6.20;;;3.10;;
70388;SDS011;58659;49.050;8.530;2023-08-17T09:57:20;5.18;;;3.50;;
70388;SDS011;58659;49.050;8.530;2023-08-17T09:59:46;5.53;;;3.63;;
70388;SDS011;58659;49.050;8.530;2023-08-17T10:02:18;4.57;;;3.10;;
70388;SDS011;58659;49.050;8.530;2023-08-17T10:04:49;7.53;;;3.40;;
70388;SDS011;58659;49.050;8.530;2023-08-17T10:07:38;4.97;;;3.53;;
70388;SDS011;58659;49.050;8.530;2023-08-17T10:10:08;4.78;;;3.28;;
70388;SDS011;58659;49.050;8.530;2023-08-17T10:12:45;5.55;;;2.92;;
70388;SDS011;58659;49.050;8.530;2023-08-17T10:15:33;8.32;;;3.30;;
70388;SDS011;58659;49.050;8.530;2023-08-17T10:18:09;6.00;;;3.50;;
70388;SDS011;58659;49.050;8.530;2023-08-17T10:20:42;4.32;;;3.35;;
70388;SDS011;58659;49.050;8.530;2023-08-17T10:23:15;5.38;;;3.47;;
70388;SDS011;58659;49.050;8.530;2023-08-17T10:25:44;4.93;;;3.50;;
70388;SDS011;58659;49.050;8.530;2023-08-17T10:28:09;5.28;;;3.70;;
70388;SDS011;58659;49.050;8.530;2023-08-17T10:30:36;10.02;;;4.10;;
70388;SDS011;58659;49.050;8.530;2023-08-17T10:33:02;5.90;;;3.78;;
70388;SDS011;58659;49.050;8.530;2023-08-17T10:35:30;5.95;;;3.50;;
70388;SDS011;58659;49.050;8.530;2023-08-17T10:38:00;6.53;;;4.03;;
70388;SDS011;58659;49.050;8.530;2023-08-17T10:40:28;6.78;;;4.03;;
70388;SDS011;58659;49.050;8.530;2023-08-17T10:43:02;6.85;;;4.75;;
70388;SDS011;58659;49.050;8.530;2023-08-17T10:45:28;7.13;;;4.40;;
70388;SDS011;58659;49.050;8.530;2023-08-17T10:50:36;7.70;;;3.78;;
70388;SDS011;58659;49.050;8.530;2023-08-17T10:53:08;5.87;;;4.23;;
70388;SDS011;58659;49.050;8.530;2023-08-17T10:55:36;6.15;;;3.97;;
70388;SDS011;58659;49.050;8.530;2023-08-17T10:58:05;8.02;;;4.10;;
70388;SDS011;58659;49.050;8.530;2023-08-17T11:00:36;6.55;;;3.83;;
70388;SDS011;58659;49.050;8.530;2023-08-17T11:03:04;5.43;;;3.83;;
70388;SDS011;58659;49.050;8.530;2023-08-17T11:05:42;7.10;;;4.00;;
70388;SDS011;58659;49.050;8.530;2023-08-17T11:11:21;6.07;;;4.25;;
70388;SDS011;58659;49.050;8.530;2023-08-17T11:13:48;4.95;;;3.60;;
70388;SDS011;58659;49.050;8.530;2023-08-17T11:16:17;5.10;;;3.25;;
70388;SDS011;58659;49.050;8.530;2023-08-17T11:18:51;4.88;;;4.00;;
70388;SDS011;58659;49.050;8.530;2023-08-17T11:21:17;4.15;;;3.65;;
70388;SDS011;58659;49.050;8.530;2023-08-17T11:23:43;9.88;;;3.90;;
70388;SDS011;58659;49.050;8.530;2023-08-17T11:26:11;5.68;;;3.60;;
70388;SDS011;58659;49.050;8.530;2023-08-17T11:28:37;5.05;;;3.70;;
70388;SDS011;58659;49.050;8.530;2023-08-17T11:31:04;8.30;;;4.57;;
70388;SDS011;58659;49.050;8.530;2023-08-17T11:33:31;7.25;;;4.40;;
70388;SDS011;58659;49.050;8.530;2023-08-17T11:35:57;6.40;;;3.72;;
70388;SDS011;58659;49.050;8.530;2023-08-17T11:38:23;5.95;;;3.97;;
70388;SDS011;58659;49.050;8.530;2023-08-17T11:40:50;7.93;;;4.03;;
70388;SDS011;58659;49.050;8.530;2023-08-17T11:43:15;5.93;;;4.40;;
70388;SDS011;58659;49.050;8.530;2023-08-17T11:45:41;6.57;;;4.50;;
70388;SDS011;58659;49.050;8.530;2023-08-17T11:48:07;6.35;;;4.20;;
70388;SDS011;58659;49.050;8.530;2023-08-17T11:50:32;6.53;;;4.32;;
70388;SDS011;58659;49.050;8.530;2023-08-17T11:53:01;7.28;;;4.13;;
70388;SDS011;58659;49.050;8.530;2023-08-17T11:55:27;6.40;;;3.95;;
70388;SDS011;58659;49.050;8.530;2023-08-17T11:57:52;5.78;;;4.13;;
70388;SDS011;58659;49.050;8.530;2023-08-17T12:00:18;6.90;;;4.50;;
70388;SDS011;58659;49.050;8.530;2023-08-17T12:02:48;5.40;;;3.80;;
70388;SDS011;58659;49.050;8.530;2023-08-17T12:05:21;6.03;;;4.20;;
70388;SDS011;58659;49.050;8.530;2023-08-17T12:07:49;7.93;;;4.25;;
70388;SDS011;58659;49.050;8.530;2023-08-17T12:10:14;10.40;;;4.70;;
70388;SDS011;58659;49.050;8.530;2023-08-17T12:12:40;5.97;;;4.45;;
70388;SDS011;58659;49.050;8.530;2023-08-17T12:15:05;5.95;;;4.40;;
70388;SDS011;58659;49.050;8.530;2023-08-17T12:17:31;7.43;;;5.20;;
70388;SDS011;58659;49.050;8.530;2023-08-17T12:20:01;8.02;;;4.03;;
70388;SDS011;58659;49.050;8.530;2023-08-17T12:22:26;8.07;;;5.07;;
70388;SDS011;58659;49.050;8.530;2023-08-17T12:24:52;9.18;;;5.47;;
70388;SDS011;58659;49.050;8.530;2023-08-17T12:27:17;10.88;;;6.30;;
70388;SDS011;58659;49.050;8.530;2023-08-17T12:29:50;11.27;;;6.70;;
70388;SDS011;58659;49.050;8.530;2023-08-17T12:32:16;14.00;;;7.22;;
70388;SDS011;58659;49.050;8.530;2023-08-17T12:34:42;10.23;;;6.93;;
70388;SDS011;58659;49.050;8.530;2023-08-17T12:37:08;11.27;;;6.28;;
70388;SDS011;58659;49.050;8.530;2023-08-17T12:39:35;9.82;;;6.55;;
70388;SDS011;58659;49.050;8.530;2023-08-17T12:42:00;10.38;;;6.65;;
70388;SDS011;58659;49.050;8.530;2023-08-17T12:44:26;11.05;;;6.47;;
70388;SDS011;58659;49.050;8.530;2023-08-17T12:46:51;8.25;;;5.68;;
70388;SDS011;58659;49.050;8.530;2023-08-17T12:49:16;10.27;;;5.93;;
70388;SDS011;58659;49.050;8.530;2023-08-17T12:51:42;8.38;;;6.00;;
70388;SDS011;58659;49.050;8.530;2023-08-17T12:54:07;9.25;;;6.03;;
70388;SDS011;58659;49.050;8.530;2023-08-17T12:56:32;7.93;;;5.55;;
70388;SDS011;58659;49.050;8.530;2023-08-17T12:58:58;8.70;;;5.43;;
70388;SDS011;58659;49.050;8.530;2023-08-17T13:01:23;8.98;;;5.70;;
70388;SDS011;58659;49.050;8.530;2023-08-17T13:03:48;9.07;;;5.65;;
70388;SDS011;58659;49.050;8.530;2023-08-17T13:06:14;7.30;;;4.85;;
70388;SDS011;58659;49.050;8.530;2023-08-17T13:08:39;9.02;;;5.97;;
70388;SDS011;58659;49.050;8.530;2023-08-17T13:11:07;10.77;;;6.30;;
70388;SDS011;58659;49.050;8.530;2023-08-17T13:13:33;8.07;;;5.35;;
70388;SDS011;58659;49.050;8.530;2023-08-17T13:15:58;8.75;;;5.20;;
70388;SDS011;58659;49.050;8.530;2023-08-17T13:18:23;7.43;;;5.15;;
70388;SDS011;58659;49.050;8.530;2023-08-17T13:20:49;7.05;;;5.60;;
70388;SDS011;58659;49.050;8.530;2023-08-17T13:23:14;6.40;;;5.15;;
70388;SDS011;58659;49.050;8.530;2023-08-17T13:25:39;8.48;;;5.55;;
70388;SDS011;58659;49.050;8.530;2023-08-17T13:28:05;8.85;;;5.97;;
70388;SDS011;58659;49.050;8.530;2023-08-17T13:30:30;9.40;;;5.40;;
70388;SDS011;58659;49.050;8.530;2023-08-17T13:32:56;7.05;;;5.03;;
70388;SDS011;58659;49.050;8.530;2023-08-17T13:35:21;6.95;;;4.65;;
70388;SDS011;58659;49.050;8.530;2023-08-17T13:37:50;10.23;;;5.07;;
70388;SDS011;58659;49.050;8.530;2023-08-17T13:40:17;8.48;;;5.82;;
70388;SDS011;58659;49.050;8.530;2023-08-17T13:42:45;6.28;;;4.95;;
70388;SDS011;58659;49.050;8.530;2023-08-17T13:45:11;8.18;;;5.32;;
70388;SDS011;58659;49.050;8.530;2023-08-17T13:47:36;20.13;;;7.80;;
70388;SDS011;58659;49.050;8.530;2023-08-17T13:50:04;12.93;;;5.65;;
70388;SDS011;58659;49.050;8.530;2023-08-17T13:52:29;9.00;;;5.03;;
70388;SDS011;58659;49.050;8.530;2023-08-17T13:54:55;12.48;;;6.00;;
70388;SDS011;58659;49.050;8.530;2023-08-17T13:57:20;12.77;;;5.95;;
70388;SDS011;58659;49.050;8.530;2023-08-17T13:59:46;6.90;;;4.85;;
70388;SDS011;58659;49.050;8.530;2023-08-17T14:02:11;9.82;;;5.40;;
70388;SDS011;58659;49.050;8.530;2023-08-17T14:04:36;5.78;;;4.32;;
70388;SDS011;58659;49.050;8.530;2023-08-17T14:07:04;8.93;;;4.72;;
70388;SDS011;58659;49.050;8.530;2023-08-17T14:09:29;5.53;;;4.25;;
70388;SDS011;58659;49.050;8.530;2023-08-17T14:11:55;11.07;;;5.68;;
70388;SDS011;58659;49.050;8.530;2023-08-17T14:14:23;8.30;;;5.50;;
70388;SDS011;58659;49.050;8.530;2023-08-17T14:16:48;6.57;;;5.05;;
70388;SDS011;58659;49.050;8.530;2023-08-17T14:19:14;6.78;;;4.43;;
70388;SDS011;58659;49.050;8.530;2023-08-17T14:21:39;10.93;;;5.65;;
70388;SDS011;58659;49.050;8.530;2023-08-17T14:24:04;7.05;;;5.15;;
70388;SDS011;58659;49.050;8.530;2023-08-17T14:26:31;7.85;;;4.93;;
70388;SDS011;58659;49.050;8.530;2023-08-17T14:28:57;9.23;;;4.85;;
70388;SDS011;58659;49.050;8.530;2023-08-17T14:31:22;8.90;;;5.28;;
70388;SDS011;58659;49.050;8.530;2023-08-17T14:33:47;7.70;;;5.00;;
70388;SDS011;58659;49.050;8.530;2023-08-17T14:36:14;7.70;;;4.60;;
70388;SDS011;58659;49.050;8.530;2023-08-17T14:38:40;7.07;;;4.70;;
70388;SDS011;58659;49.050;8.530;2023-08-17T14:41:05;8.63;;;4.80;;
70388;SDS011;58659;49.050;8.530;2023-08-17T14:43:32;8.13;;;5.18;;
70388;SDS011;58659;49.050;8.530;2023-08-17T14:45:57;5.75;;;4.40;;
70388;SDS011;58659;49.050;8.530;2023-08-17T14:48:23;8.00;;;4.75;;
70388;SDS011;58659;49.050;8.530;2023-08-17T14:50:48;6.68;;;4.60;;
70388;SDS011;58659;49.050;8.530;2023-08-17T14:53:13;6.75;;;4.97;;
70388;SDS011;58659;49.050;8.530;2023-08-17T14:55:39;4.78;;;4.15;;